Time;durP1;ratioP1;P1;durP2;ratioP2;P2;SDS_P1;SDS_P2;PMS_P1;PMS_P2;Temp;Humidity;BMP_temperature;BMP_pressure;BME280_temperature;BME280_humidity;BME280_pressure;Samples;Min_cycle;Max_cycle;Signal;HPM_P1;HPM_P2
2023/05/26 00:02:14;;;;;;;21.92;4.30;;;10.50;99.90;;;;;;5136151;27;20139;-75
2023/05/26 00:04:43;;;;;;;18.67;3.58;;;10.50;99.90;;;;;;5136189;27;20081;-75
2023/05/26 00:07:09;;;;;;;21.40;4.70;;;10.50;99.90;;;;;;5136378;27;20042;-75
2023/05/26 00:09:38;;;;;;;19.90;4.00;;;10.50;99.90;;;;;;5136580;27;20122;-75
2023/05/26 00:12:06;;;;;;;27.17;4.15;;;10.50;99.90;;;;;;5137519;27;20046;-75
2023/05/26 00:14:32;;;;;;;21.08;4.20;;;10.50;99.90;;;;;;5136196;27;20051;-74
2023/05/26 00:16:57;;;;;;;15.95;3.50;;;10.50;99.90;;;;;;5136486;27;20035;-75
2023/05/26 00:19:26;;;;;;;21.42;4.35;;;10.60;99.90;;;;;;5136178;27;20576;-74
2023/05/26 00:21:52;;;;;;;22.90;4.68;;;10.50;99.90;;;;;;5135795;27;20066;-74
2023/05/26 00:24:17;;;;;;;21.50;4.22;;;10.50;99.90;;;;;;5136273;27;20047;-74
2023/05/26 00:26:43;;;;;;;16.80;3.20;;;10.50;99.90;;;;;;5136256;27;20074;-74
2023/05/26 00:29:08;;;;;;;18.13;3.80;;;10.50;99.90;;;;;;5135918;27;20053;-74
2023/05/26 00:31:34;;;;;;;14.70;3.38;;;10.50;99.90;;;;;;5136183;27;20126;-75
2023/05/26 00:34:00;;;;;;;19.63;4.10;;;10.50;99.90;;;;;;5135651;27;20059;-75
2023/05/26 00:36:26;;;;;;;23.42;5.20;;;10.40;99.90;;;;;;5135802;27;20509;-75
2023/05/26 00:38:51;;;;;;;17.40;4.38;;;10.40;99.90;;;;;;5137025;27;20049;-75
2023/05/26 00:41:17;;;;;;;20.15;3.78;;;10.40;99.90;;;;;;5137196;27;20363;-75
2023/05/26 00:43:43;;;;;;;19.83;3.85;;;10.50;99.90;;;;;;5135820;27;20089;-75
2023/05/26 00:46:09;;;;;;;17.00;3.33;;;10.40;99.90;;;;;;5135788;27;20083;-75
2023/05/26 00:48:44;;;;;;;23.50;4.38;;;10.40;99.90;;;;;;5135590;27;20049;-75
2023/05/26 00:51:11;;;;;;;22.80;4.60;;;10.40;99.90;;;;;;5135812;27;20078;-75
2023/05/26 00:53:42;;;;;;;25.48;4.32;;;10.40;99.90;;;;;;5136967;27;20043;-74
2023/05/26 00:56:18;;;;;;;20.30;4.70;;;10.40;99.90;;;;;;5135497;27;20043;-75
2023/05/26 00:58:45;;;;;;;23.52;3.70;;;10.30;99.90;;;;;;5135653;27;20062;-74
2023/05/26 01:01:12;;;;;;;19.38;3.63;;;10.40;99.90;;;;;;5136235;27;20043;-75
2023/05/26 01:03:38;;;;;;;15.30;3.55;;;10.40;99.90;;;;;;5135208;27;20051;-75
2023/05/26 01:06:05;;;;;;;17.92;3.17;;;10.40;99.90;;;;;;5135454;27;20092;-74
2023/05/26 01:08:32;;;;;;;22.20;3.70;;;10.30;99.90;;;;;;5135123;27;20538;-75
2023/05/26 01:11:06;;;;;;;17.10;3.42;;;10.30;99.90;;;;;;5135488;27;20043;-75
2023/05/26 01:13:47;;;;;;;16.08;3.55;;;10.30;99.90;;;;;;5135202;27;20035;-75
2023/05/26 01:16:17;;;;;;;18.30;3.80;;;10.30;99.90;;;;;;5135415;27;20165;-75
2023/05/26 01:18:52;;;;;;;19.27;3.72;;;10.30;99.90;;;;;;5135165;27;20543;-75
2023/05/26 01:21:21;;;;;;;14.32;2.58;;;10.30;99.90;;;;;;5135346;27;20193;-75
2023/05/26 01:24:25;;;;;;;13.65;2.95;;;10.30;99.90;;;;;;5134860;27;20031;-75
2023/05/26 01:27:17;;;;;;;18.45;4.43;;;10.30;99.90;;;;;;5134933;27;20375;-75
2023/05/26 01:29:44;;;;;;;19.75;3.55;;;10.30;99.90;;;;;;5135262;27;20050;-75
2023/05/26 01:32:16;;;;;;;19.38;3.80;;;10.30;99.90;;;;;;5135012;27;20043;-75
2023/05/26 01:34:44;;;;;;;14.18;2.70;;;10.30;99.90;;;;;;5134678;27;20092;-75
2023/05/26 01:37:10;;;;;;;18.73;4.07;;;10.20;99.90;;;;;;5134763;27;20135;-75
2023/05/26 01:39:36;;;;;;;15.13;2.65;;;10.20;99.90;;;;;;5134578;27;20154;-75
2023/05/26 01:42:23;;;;;;;15.77;4.03;;;10.30;99.90;;;;;;5134609;27;20043;-74
2023/05/26 01:45:01;;;;;;;17.58;3.40;;;10.30;99.90;;;;;;5134481;27;20457;-75
2023/05/26 01:47:30;;;;;;;19.00;3.83;;;10.30;99.90;;;;;;5135682;27;20117;-74
2023/05/26 01:50:01;;;;;;;18.42;3.60;;;10.30;99.90;;;;;;5134683;27;20042;-75
2023/05/26 01:52:27;;;;;;;17.67;3.75;;;10.30;99.90;;;;;;5134458;27;20096;-75
2023/05/26 01:54:57;;;;;;;18.70;3.42;;;10.30;99.90;;;;;;5134245;27;20096;-75
2023/05/26 01:57:25;;;;;;;11.85;4.25;;;10.30;99.90;;;;;;5134093;27;20053;-75
2023/05/26 01:59:52;;;;;;;19.75;3.35;;;10.30;99.90;;;;;;5135507;27;20043;-75
2023/05/26 02:02:18;;;;;;;13.05;3.30;;;10.30;99.90;;;;;;5134083;27;20051;-75
2023/05/26 02:04:44;;;;;;;15.35;3.75;;;10.40;99.90;;;;;;5134116;27;20482;-75
2023/05/26 02:07:09;;;;;;;17.85;4.20;;;10.30;99.90;;;;;;5133990;27;20068;-75
2023/05/26 02:09:36;;;;;;;16.60;3.15;;;10.30;99.90;;;;;;5133333;27;20049;-75
2023/05/26 02:12:03;;;;;;;17.55;3.65;;;10.30;99.90;;;;;;5135325;27;20043;-75
2023/05/26 02:14:28;;;;;;;16.00;3.97;;;10.30;99.90;;;;;;5134136;27;20135;-75
2023/05/26 02:16:54;;;;;;;17.02;3.33;;;10.30;99.90;;;;;;5133895;27;20476;-75
2023/05/26 02:19:20;;;;;;;16.02;3.35;;;10.30;99.90;;;;;;5135092;27;20051;-75
2023/05/26 02:21:46;;;;;;;17.45;3.40;;;10.30;99.90;;;;;;5133892;27;20039;-75
2023/05/26 02:24:11;;;;;;;19.95;3.95;;;10.30;99.90;;;;;;5133764;27;20035;-75
2023/05/26 02:26:37;;;;;;;19.38;3.53;;;10.30;99.90;;;;;;5133535;27;20039;-75
2023/05/26 02:29:03;;;;;;;15.25;3.33;;;10.30;99.90;;;;;;5133858;27;20049;-75
2023/05/26 02:31:28;;;;;;;22.10;4.43;;;10.30;99.90;;;;;;5133853;27;20125;-75
2023/05/26 02:33:54;;;;;;;23.00;4.03;;;10.20;99.90;;;;;;5133972;27;20054;-75
2023/05/26 02:36:23;;;;;;;23.35;4.40;;;10.20;99.90;;;;;;5133901;27;20054;-75
2023/05/26 02:38:48;;;;;;;19.17;3.65;;;10.20;99.90;;;;;;5133778;27;20130;-75
2023/05/26 02:41:15;;;;;;;15.55;4.18;;;10.20;99.90;;;;;;5133675;27;20547;-75
2023/05/26 02:43:40;;;;;;;26.73;5.15;;;10.30;99.90;;;;;;5133650;27;20054;-75
2023/05/26 02:46:06;;;;;;;18.58;3.67;;;10.30;99.90;;;;;;5133697;27;20391;-75
2023/05/26 02:48:31;;;;;;;15.82;3.90;;;10.30;99.90;;;;;;5134365;27;20038;-74
2023/05/26 02:50:59;;;;;;;21.33;4.47;;;10.20;99.90;;;;;;5133676;27;20043;-74
2023/05/26 02:53:25;;;;;;;15.27;3.30;;;10.20;99.90;;;;;;5133653;27;20055;-74
2023/05/26 02:55:50;;;;;;;20.42;3.00;;;10.20;99.90;;;;;;5133510;27;20047;-75
2023/05/26 02:58:16;;;;;;;21.00;3.60;;;10.30;99.90;;;;;;5133460;27;20107;-74
2023/05/26 03:00:42;;;;;;;16.38;3.42;;;10.30;99.90;;;;;;5133287;28;20394;-74
2023/05/26 03:03:10;;;;;;;21.15;3.42;;;10.20;99.90;;;;;;5133123;28;20051;-74
2023/05/26 03:05:37;;;;;;;21.45;4.07;;;10.20;99.90;;;;;;5133235;28;20051;-75
2023/05/26 03:08:03;;;;;;;13.82;2.70;;;10.20;99.90;;;;;;5133302;28;20047;-75
2023/05/26 03:10:29;;;;;;;19.00;3.83;;;10.20;99.90;;;;;;5133255;28;20036;-75
2023/05/26 03:12:55;;;;;;;23.30;3.22;;;10.20;99.90;;;;;;5134223;27;20043;-75
2023/05/26 03:15:22;;;;;;;13.68;4.15;;;10.20;99.90;;;;;;5132850;28;20049;-75
2023/05/26 03:17:47;;;;;;;16.77;3.35;;;10.20;99.90;;;;;;5132870;28;20483;-74
2023/05/26 03:20:13;;;;;;;17.88;3.33;;;10.30;99.90;;;;;;5134818;27;20035;-74
2023/05/26 03:22:40;;;;;;;18.33;3.70;;;10.30;99.90;;;;;;5137406;27;20051;-74
2023/05/26 03:25:06;;;;;;;19.70;4.57;;;10.30;99.90;;;;;;5136957;27;20059;-74
2023/05/26 03:27:31;;;;;;;13.15;3.35;;;10.30;99.90;;;;;;5136946;27;20043;-74
2023/05/26 03:29:57;;;;;;;19.33;3.85;;;10.30;99.90;;;;;;5138223;27;20089;-74
2023/05/26 03:32:23;;;;;;;17.50;3.28;;;10.20;99.90;;;;;;5137138;27;20051;-74
2023/05/26 03:34:48;;;;;;;11.40;2.38;;;10.30;99.90;;;;;;5137048;27;20512;-74
2023/05/26 03:37:15;;;;;;;21.42;4.28;;;10.30;99.90;;;;;;5136652;27;20086;-74
2023/05/26 03:39:41;;;;;;;14.55;3.28;;;10.30;99.90;;;;;;5137935;27;20043;-74
2023/05/26 03:42:08;;;;;;;14.23;3.72;;;10.30;99.90;;;;;;5136993;27;20047;-74
2023/05/26 03:44:34;;;;;;;17.90;3.83;;;10.30;99.90;;;;;;5136895;27;20047;-75
2023/05/26 03:47:00;;;;;;;15.70;3.20;;;10.30;99.90;;;;;;5135617;27;20137;-75
2023/05/26 03:49:26;;;;;;;18.08;3.60;;;10.30;99.90;;;;;;5136502;27;20406;-74
2023/05/26 03:51:51;;;;;;;17.35;3.05;;;10.30;99.90;;;;;;5136618;27;20043;-74
2023/05/26 03:54:17;;;;;;;14.38;3.05;;;10.40;99.90;;;;;;5136463;27;20043;-74
2023/05/26 03:56:42;;;;;;;18.02;3.75;;;10.30;99.90;;;;;;5136606;27;20043;-74
2023/05/26 03:59:08;;;;;;;20.85;4.68;;;10.30;99.90;;;;;;5136650;27;20399;-75
2023/05/26 04:01:36;;;;;;;20.75;4.20;;;10.40;99.90;;;;;;5137411;27;20403;-75
2023/05/26 04:04:05;;;;;;;16.38;4.60;;;10.30;99.90;;;;;;5136281;27;20108;-75
2023/05/26 04:06:31;;;;;;;17.60;4.28;;;10.40;99.90;;;;;;5137649;27;20054;-75
2023/05/26 04:09:00;;;;;;;17.13;3.65;;;10.40;99.90;;;;;;5135984;27;20047;-75
2023/05/26 04:11:29;;;;;;;16.25;3.20;;;10.40;99.90;;;;;;5136116;27;20148;-75
2023/05/26 04:13:54;;;;;;;16.08;3.53;;;10.40;99.90;;;;;;5136046;27;20102;-75
2023/05/26 04:16:20;;;;;;;18.17;3.85;;;10.50;99.90;;;;;;5136268;27;20080;-75
2023/05/26 04:18:46;;;;;;;12.95;3.17;;;10.50;99.90;;;;;;5136147;27;20051;-75
2023/05/26 04:21:12;;;;;;;15.88;3.42;;;10.50;99.90;;;;;;5136008;27;20122;-75
2023/05/26 04:23:38;;;;;;;18.73;4.68;;;10.60;99.90;;;;;;5135796;27;20184;-75
2023/05/26 04:26:05;;;;;;;17.45;3.05;;;10.50;99.90;;;;;;5137053;27;20466;-75
2023/05/26 04:28:31;;;;;;;21.48;3.90;;;10.60;99.90;;;;;;5135553;27;20051;-75
2023/05/26 04:30:57;;;;;;;24.30;4.88;;;10.60;99.90;;;;;;5135749;27;20046;-75
2023/05/26 04:33:23;;;;;;;20.23;3.78;;;10.50;99.90;;;;;;5135183;27;20439;-75
2023/05/26 04:35:48;;;;;;;15.43;3.40;;;10.60;99.90;;;;;;5135539;27;20406;-74
2023/05/26 04:38:15;;;;;;;16.20;3.92;;;10.70;99.90;;;;;;5135651;27;20482;-75
2023/05/26 04:40:42;;;;;;;17.13;3.30;;;10.70;99.90;;;;;;5135914;27;20050;-75
2023/05/26 04:43:08;;;;;;;21.65;4.75;;;10.80;99.90;;;;;;5135600;27;20447;-75
2023/05/26 04:45:36;;;;;;;20.60;4.82;;;10.90;99.90;;;;;;5135679;27;20389;-74
2023/05/26 04:48:02;;;;;;;20.85;3.63;;;11.00;99.90;;;;;;5136496;27;20043;-74
2023/05/26 04:50:28;;;;;;;18.17;3.10;;;11.00;99.90;;;;;;5135385;27;20070;-75
2023/05/26 04:52:53;;;;;;;18.00;4.03;;;11.10;99.90;;;;;;5135605;27;20079;-74
2023/05/26 04:55:19;;;;;;;17.67;4.15;;;11.20;99.90;;;;;;5135417;27;20047;-74
2023/05/26 04:57:48;;;;;;;24.83;3.80;;;11.10;99.90;;;;;;5135272;27;20409;-74
2023/05/26 05:00:14;;;;;;;21.80;3.95;;;11.00;99.90;;;;;;5135170;27;20043;-75
2023/05/26 05:02:43;;;;;;;13.55;2.70;;;11.00;99.90;;;;;;5134919;27;20062;-75
2023/05/26 05:05:08;;;;;;;16.02;3.13;;;11.00;99.90;;;;;;5135132;27;20055;-74
2023/05/26 05:07:34;;;;;;;21.00;4.32;;;11.10;99.90;;;;;;5134947;27;20043;-75
2023/05/26 05:10:03;;;;;;;13.98;4.20;;;11.10;99.90;;;;;;5135497;27;20115;-76
2023/05/26 05:12:29;;;;;;;14.32;3.17;;;11.30;99.90;;;;;;5134878;27;20114;-75
2023/05/26 05:14:54;;;;;;;15.60;3.30;;;11.40;99.90;;;;;;5134969;27;20439;-75
2023/05/26 05:17:20;;;;;;;18.58;3.75;;;11.40;99.90;;;;;;5129335;27;20500;-74
2023/05/26 05:19:46;;;;;;;19.15;3.90;;;11.50;99.90;;;;;;5121411;27;20048;-74
2023/05/26 05:22:13;;;;;;;23.45;3.30;;;11.60;99.90;;;;;;5114203;28;20399;-74
2023/05/26 05:24:44;;;;;;;19.92;3.45;;;11.70;99.90;;;;;;5113899;28;20077;-74
2023/05/26 05:27:10;;;;;;;15.63;3.92;;;11.70;99.90;;;;;;5113813;28;20496;-74
2023/05/26 05:29:35;;;;;;;19.92;4.03;;;11.80;99.90;;;;;;5114108;28;20130;-73
2023/05/26 05:32:01;;;;;;;13.60;2.67;;;11.80;99.90;;;;;;5113815;28;20039;-73
2023/05/26 05:34:29;;;;;;;20.85;3.83;;;11.80;99.90;;;;;;5113662;28;20043;-75
2023/05/26 05:36:55;;;;;;;21.42;3.70;;;11.90;99.90;;;;;;5113654;28;20047;-74
2023/05/26 05:39:21;;;;;;;15.05;3.22;;;12.00;99.90;;;;;;5113510;28;20053;-76
2023/05/26 05:41:46;;;;;;;12.82;3.30;;;12.10;99.90;;;;;;5113927;28;20051;-73
2023/05/26 05:44:12;;;;;;;16.48;3.45;;;12.30;99.90;;;;;;5112671;28;20391;-73
2023/05/26 05:46:39;;;;;;;16.17;2.92;;;12.30;99.90;;;;;;5113731;28;20067;-74
2023/05/26 05:49:05;;;;;;;24.45;4.22;;;12.40;99.90;;;;;;5113499;28;20044;-74
2023/05/26 05:51:31;;;;;;;16.02;3.88;;;12.40;99.90;;;;;;5113356;28;20088;-74
2023/05/26 05:54:09;;;;;;;16.88;4.57;;;12.40;99.90;;;;;;5113627;28;20047;-73
2023/05/26 05:56:35;;;;;;;20.45;4.30;;;12.50;99.90;;;;;;5113564;28;20403;-73
2023/05/26 05:59:00;;;;;;;16.25;3.78;;;12.60;99.90;;;;;;5113395;28;20036;-75
2023/05/26 06:01:26;;;;;;;15.55;3.50;;;12.60;99.90;;;;;;5113487;28;20058;-74
2023/05/26 06:03:55;;;;;;;35.50;4.25;;;12.60;99.90;;;;;;5113094;28;20403;-74
2023/05/26 06:06:21;;;;;;;14.50;3.40;;;12.90;99.90;;;;;;5113092;28;20087;-75
2023/05/26 06:08:47;;;;;;;13.93;3.15;;;12.90;99.90;;;;;;5112935;28;20075;-75
2023/05/26 06:11:15;;;;;;;11.73;2.95;;;13.10;99.90;;;;;;5113287;28;20050;-74
2023/05/26 06:13:53;;;;;;;14.68;3.38;;;13.10;99.90;;;;;;5114632;28;20120;-74
2023/05/26 06:16:19;;;;;;;14.40;3.05;;;13.10;99.90;;;;;;5113797;28;20052;-74
2023/05/26 06:18:45;;;;;;;11.13;3.17;;;13.20;99.90;;;;;;5114185;28;20090;-74
2023/05/26 06:21:11;;;;;;;17.70;3.83;;;13.40;99.90;;;;;;5113043;28;20079;-74
2023/05/26 06:23:36;;;;;;;17.08;3.47;;;13.50;99.90;;;;;;5113051;28;20074;-74
2023/05/26 06:26:02;;;;;;;19.42;3.20;;;13.50;99.90;;;;;;5112754;28;20526;-73
2023/05/26 06:28:28;;;;;;;13.52;2.67;;;13.50;99.90;;;;;;5112313;28;20047;-74
2023/05/26 06:30:53;;;;;;;15.18;3.10;;;13.60;99.90;;;;;;5112503;28;20082;-74
2023/05/26 06:33:22;;;;;;;19.00;3.35;;;13.80;99.90;;;;;;5112556;28;20483;-74
2023/05/26 06:35:47;;;;;;;14.85;3.50;;;13.90;99.90;;;;;;5112671;28;20043;-74
2023/05/26 06:38:13;;;;;;;14.52;2.78;;;13.80;99.90;;;;;;5112507;28;20050;-74
2023/05/26 06:40:39;;;;;;;16.35;3.60;;;13.80;99.90;;;;;;5112549;28;20136;-74
2023/05/26 06:43:04;;;;;;;14.02;3.10;;;14.00;99.90;;;;;;5112807;28;20043;-74
2023/05/26 06:45:30;;;;;;;20.35;3.50;;;13.90;99.90;;;;;;5112440;28;20065;-74
2023/05/26 06:47:56;;;;;;;15.05;3.47;;;13.90;99.90;;;;;;5112560;28;20501;-74
2023/05/26 06:50:21;;;;;;;25.10;3.75;;;14.20;99.90;;;;;;5112625;28;20044;-74
2023/05/26 06:52:47;;;;;;;17.35;3.25;;;14.30;99.90;;;;;;5112441;28;20443;-74
2023/05/26 06:55:13;;;;;;;13.73;2.78;;;14.40;99.90;;;;;;5113364;28;20093;-74
2023/05/26 06:57:38;;;;;;;15.18;3.10;;;14.40;99.90;;;;;;5112766;28;20050;-74
2023/05/26 07:00:06;;;;;;;15.15;3.88;;;14.50;99.90;;;;;;5112545;28;20077;-77
2023/05/26 07:02:32;;;;;;;11.73;3.03;;;14.50;99.90;;;;;;5112532;28;20472;-74
2023/05/26 07:05:01;;;;;;;13.93;3.92;;;14.60;99.90;;;;;;5112452;28;20059;-75
2023/05/26 07:07:27;;;;;;;13.30;3.25;;;14.50;99.90;;;;;;5113766;28;20044;-75
2023/05/26 07:09:53;;;;;;;15.23;2.92;;;14.60;99.90;;;;;;5112401;28;20043;-75
2023/05/26 07:12:19;;;;;;;20.55;3.45;;;14.60;99.90;;;;;;5112412;28;20081;-75
2023/05/26 07:14:46;;;;;;;16.65;3.50;;;14.70;99.90;;;;;;5147101;27;20039;-75
2023/05/26 07:17:12;;;;;;;20.65;4.05;;;14.50;99.90;;;;;;5113582;28;20040;-75
2023/05/26 07:19:38;;;;;;;19.40;3.45;;;14.60;99.90;;;;;;5112467;28;20108;-75
2023/05/26 07:22:04;;;;;;;14.35;3.13;;;14.80;99.90;;;;;;5112224;28;20479;-75
2023/05/26 07:24:30;;;;;;;16.88;2.67;;;14.90;99.90;;;;;;5112387;28;20050;-75
2023/05/26 07:26:56;;;;;;;15.90;3.38;;;15.00;99.90;;;;;;5112557;28;20039;-75
2023/05/26 07:29:21;;;;;;;17.40;3.47;;;15.00;99.90;;;;;;5113425;28;20575;-75
2023/05/26 07:31:53;;;;;;;12.27;3.22;;;15.10;99.90;;;;;;5113582;28;20042;-75
2023/05/26 07:34:20;;;;;;;16.25;2.95;;;15.10;99.90;;;;;;5112250;28;20047;-75
2023/05/26 07:36:58;;;;;;;19.30;3.40;;;15.20;99.90;;;;;;5112056;28;20040;-75
2023/05/26 07:39:23;;;;;;;15.25;2.65;;;15.20;99.90;;;;;;5112124;28;20054;-75
2023/05/26 07:41:49;;;;;;;15.50;2.65;;;15.50;99.90;;;;;;5112121;28;20039;-75
2023/05/26 07:44:15;;;;;;;12.80;3.30;;;15.60;99.90;;;;;;5112129;28;20044;-75
2023/05/26 07:46:40;;;;;;;21.50;3.65;;;15.30;99.90;;;;;;5112190;28;20050;-75
2023/05/26 07:49:13;;;;;;;17.15;3.38;;;15.30;99.90;;;;;;5112269;28;20144;-75
2023/05/26 07:51:38;;;;;;;13.85;2.92;;;15.60;99.90;;;;;;5112071;28;20047;-75
2023/05/26 07:54:04;;;;;;;14.32;3.20;;;15.70;99.90;;;;;;5112090;28;20039;-75
2023/05/26 07:56:30;;;;;;;14.80;3.28;;;15.90;99.90;;;;;;5112320;28;20043;-75
2023/05/26 07:58:55;;;;;;;14.98;3.20;;;16.00;99.90;;;;;;5112230;28;20059;-75
2023/05/26 08:01:21;;;;;;;12.90;3.58;;;15.90;99.90;;;;;;5113222;28;20094;-75
2023/05/26 08:03:47;;;;;;;14.60;2.92;;;15.70;99.90;;;;;;5111976;28;20048;-75
2023/05/26 08:06:13;;;;;;;14.23;3.42;;;16.00;99.90;;;;;;5112002;28;20077;-75
2023/05/26 08:08:39;;;;;;;16.77;3.38;;;15.90;99.90;;;;;;5115446;28;20051;-75
2023/05/26 08:11:05;;;;;;;21.52;3.30;;;16.20;99.90;;;;;;5115919;28;20096;-76
2023/05/26 08:13:30;;;;;;;16.98;3.78;;;16.20;99.90;;;;;;5115806;28;20082;-75
2023/05/26 08:15:56;;;;;;;23.15;3.58;;;16.20;99.90;;;;;;5117034;28;20097;-75
2023/05/26 08:18:21;;;;;;;19.02;3.38;;;16.30;99.90;;;;;;5115638;28;20449;-76
2023/05/26 08:20:52;;;;;;;18.23;5.07;;;16.20;99.90;;;;;;5115608;28;20396;-75
2023/05/26 08:23:19;;;;;;;18.77;3.55;;;16.50;99.90;;;;;;5115353;28;20047;-75
2023/05/26 08:25:44;;;;;;;11.73;2.90;;;16.60;99.90;;;;;;5151601;27;20036;-74
2023/05/26 08:28:10;;;;;;;11.85;3.08;;;16.40;99.90;;;;;;5124177;27;20047;-75
2023/05/26 08:30:36;;;;;;;12.38;3.17;;;16.30;99.90;;;;;;5115044;28;20062;-75
2023/05/26 08:33:01;;;;;;;17.60;3.53;;;16.60;99.90;;;;;;5115068;28;20058;-74
2023/05/26 08:35:28;;;;;;;14.55;3.40;;;16.80;99.90;;;;;;5115136;28;20069;-75
2023/05/26 08:37:54;;;;;;;16.25;3.08;;;16.30;99.90;;;;;;5115153;28;20071;-75
2023/05/26 08:40:20;;;;;;;13.02;2.80;;;16.70;99.90;;;;;;5114799;28;20075;-74
2023/05/26 08:42:49;;;;;;;15.10;3.42;;;16.80;99.90;;;;;;5115080;28;20142;-76
2023/05/26 08:45:15;;;;;;;14.13;3.47;;;16.20;99.90;;;;;;5115005;28;20483;-75
2023/05/26 08:47:42;;;;;;;15.73;2.75;;;16.70;99.90;;;;;;5114592;28;20112;-75
2023/05/26 08:50:08;;;;;;;17.42;3.63;;;16.80;99.90;;;;;;5114921;28;20039;-75
2023/05/26 08:52:36;;;;;;;13.68;2.83;;;16.90;99.90;;;;;;5114495;28;20046;-74
2023/05/26 08:55:02;;;;;;;21.35;3.80;;;16.80;99.90;;;;;;5114818;28;20040;-75
2023/05/26 08:57:30;;;;;;;19.77;4.22;;;17.20;99.90;;;;;;5114449;28;20138;-75
2023/05/26 08:59:56;;;;;;;14.25;3.30;;;17.40;99.90;;;;;;5114761;28;20089;-74
2023/05/26 09:02:30;;;;;;;12.90;3.00;;;17.00;99.90;;;;;;5115462;28;20067;-75
2023/05/26 09:04:55;;;;;;;11.65;2.92;;;17.00;99.90;;;;;;5114272;28;20161;-75
2023/05/26 09:07:21;;;;;;;16.92;4.00;;;16.40;99.90;;;;;;5114277;28;20134;-75
2023/05/26 09:10:23;;;;;;;14.32;3.03;;;16.70;99.90;;;;;;5114327;28;20040;-75
2023/05/26 09:12:49;;;;;;;11.07;2.78;;;17.20;99.90;;;;;;5035985;28;20052;-75
2023/05/26 09:15:20;;;;;;;13.75;3.38;;;17.50;99.90;;;;;;5098261;28;20051;-75
2023/05/26 09:17:48;;;;;;;20.27;3.85;;;17.90;99.90;;;;;;5114244;28;20123;-76
2023/05/26 09:20:17;;;;;;;20.35;3.90;;;17.80;99.90;;;;;;5114319;28;20092;-76
2023/05/26 09:22:47;;;;;;;12.15;3.22;;;17.80;99.90;;;;;;5114244;28;20433;-77
2023/05/26 09:25:16;;;;;;;18.10;4.15;;;17.70;99.90;;;;;;5114356;28;20078;-77
2023/05/26 09:27:47;;;;;;;17.08;3.83;;;17.80;99.90;;;;;;5113950;28;20048;-77
2023/05/26 09:30:18;;;;;;;14.00;3.13;;;18.00;99.90;;;;;;5114375;28;20079;-77
2023/05/26 09:32:45;;;;;;;13.75;3.40;;;17.90;99.90;;;;;;5115340;28;20130;-76
2023/05/26 09:35:11;;;;;;;16.15;3.65;;;18.10;99.90;;;;;;5115309;28;20044;-76
2023/05/26 09:37:36;;;;;;;18.48;4.13;;;17.80;99.90;;;;;;5113812;28;20069;-76
2023/05/26 09:40:14;;;;;;;25.77;4.45;;;17.90;99.90;;;;;;5115421;28;20040;-76
2023/05/26 09:42:51;;;;;;;17.15;4.60;;;18.10;99.90;;;;;;5113691;28;20433;-76
2023/05/26 09:45:16;;;;;;;16.33;4.38;;;17.50;99.90;;;;;;5113927;28;20471;-76
2023/05/26 09:47:42;;;;;;;15.85;3.33;;;17.60;99.90;;;;;;5114040;28;20050;-76
2023/05/26 09:50:08;;;;;;;16.77;3.78;;;17.80;99.90;;;;;;5113510;28;20120;-77
2023/05/26 09:52:35;;;;;;;15.18;3.67;;;17.70;99.90;;;;;;5113679;28;20517;-76
2023/05/26 09:55:00;;;;;;;16.20;3.97;;;17.80;99.90;;;;;;5115111;28;20043;-76
2023/05/26 09:57:28;;;;;;;12.85;4.20;;;17.90;99.90;;;;;;5113563;28;20054;-77
2023/05/26 09:59:56;;;;;;;18.48;3.97;;;18.10;99.90;;;;;;5113856;28;20394;-76
2023/05/26 10:02:25;;;;;;;18.35;4.03;;;17.90;99.90;;;;;;5113220;28;20077;-76
2023/05/26 10:04:58;;;;;;;14.95;3.97;;;17.80;99.90;;;;;;5113576;28;20052;-75
2023/05/26 10:07:25;;;;;;;22.38;4.88;;;18.10;99.90;;;;;;5113581;28;20044;-76
2023/05/26 10:09:59;;;;;;;14.40;4.00;;;18.00;99.90;;;;;;5113287;28;20052;-77
2023/05/26 10:12:35;;;;;;;15.80;3.92;;;18.40;99.90;;;;;;5113562;28;20050;-76
2023/05/26 10:15:03;;;;;;;18.60;3.85;;;18.50;99.90;;;;;;5113282;28;20054;-76
2023/05/26 10:17:29;;;;;;;20.05;4.40;;;18.50;99.90;;;;;;5113186;28;20040;-77
2023/05/26 10:19:57;;;;;;;21.67;4.35;;;18.40;99.90;;;;;;5113598;28;20044;-77
2023/05/26 10:22:28;;;;;;;20.08;4.78;;;18.80;99.90;;;;;;5113063;28;20118;-77
2023/05/26 10:25:11;;;;;;;21.98;4.53;;;18.90;99.90;;;;;;5112922;28;20475;-76
2023/05/26 10:28:15;;;;;;;21.38;4.57;;;18.40;99.90;;;;;;5113002;28;20051;-76
2023/05/26 10:30:42;;;;;;;22.33;4.65;;;18.60;99.90;;;;;;5071843;28;20058;-76
2023/05/26 10:33:15;;;;;;;20.00;4.20;;;18.80;99.90;;;;;;5114370;28;20043;-77
2023/05/26 10:35:55;;;;;;;18.77;3.92;;;18.90;99.90;;;;;;5112836;28;20551;-76
2023/05/26 10:38:35;;;;;;;25.13;4.05;;;18.80;99.90;;;;;;5112710;28;20058;-76
2023/05/26 10:41:01;;;;;;;20.70;4.47;;;18.70;99.90;;;;;;5114380;28;20046;-76
2023/05/26 10:43:28;;;;;;;16.02;4.30;;;18.80;99.90;;;;;;5114196;28;20051;-76
2023/05/26 10:45:57;;;;;;;19.33;3.92;;;18.80;99.90;;;;;;5114079;28;20521;-77
2023/05/26 10:48:36;;;;;;;20.35;4.57;;;18.80;99.90;;;;;;5113809;28;20048;-77
2023/05/26 10:51:09;;;;;;;17.42;4.03;;;18.60;99.90;;;;;;5112670;28;20134;-77
2023/05/26 10:53:43;;;;;;;16.08;4.00;;;18.70;99.90;;;;;;5112848;28;20054;-76
2023/05/26 10:56:14;;;;;;;17.43;3.57;;;18.80;99.90;;;;;;5114044;28;20122;-76
2023/05/26 10:58:49;;;;;;;31.60;5.50;;;18.80;99.90;;;;;;5114116;28;20114;-78
2023/05/26 11:01:22;;;;;;;28.00;5.30;;;19.00;99.90;;;;;;5114107;28;20051;-75
2023/05/26 11:03:49;;;;;;;;;;;18.90;99.90;;;;;;5112851;28;20116;-77
2023/05/26 11:06:17;;;;;;;21.20;3.85;;;18.90;99.90;;;;;;5113737;28;19970;-76
2023/05/26 11:08:48;;;;;;;21.08;4.78;;;18.90;99.90;;;;;;5112815;28;20109;-76
2023/05/26 11:11:30;;;;;;;20.70;5.25;;;18.90;99.90;;;;;;5112584;28;20048;-76
2023/05/26 11:14:09;;;;;;;17.90;3.58;;;19.20;99.90;;;;;;5112677;28;20104;-76
2023/05/26 11:16:36;;;;;;;14.10;3.00;;;19.20;99.90;;;;;;5113947;28;20043;-77
2023/05/26 11:19:04;;;;;;;25.60;4.47;;;19.00;99.90;;;;;;5112357;28;20051;-77
2023/05/26 11:21:33;;;;;;;19.90;4.70;;;19.20;99.90;;;;;;5112742;28;20051;-76
2023/05/26 11:24:00;;;;;;;20.90;4.15;;;19.20;99.90;;;;;;5113598;28;20495;-76
2023/05/26 11:26:30;;;;;;;30.55;5.15;;;19.40;99.90;;;;;;5112272;28;20075;-77
2023/05/26 11:28:56;;;;;;;28.98;5.75;;;19.50;99.90;;;;;;5112117;28;20479;-76
2023/05/26 11:31:25;;;;;;;18.52;4.22;;;19.50;99.90;;;;;;5112520;28;20047;-76
2023/05/26 11:33:51;;;;;;;20.00;4.30;;;19.60;99.90;;;;;;5111965;28;20116;-77
2023/05/26 11:36:22;;;;;;;19.58;4.88;;;19.70;99.90;;;;;;5112366;28;20044;-77
2023/05/26 11:38:54;;;;;;;21.30;4.25;;;19.60;99.90;;;;;;5113744;28;20078;-77
2023/05/26 11:41:25;;;;;;;18.42;4.22;;;19.60;99.90;;;;;;5112538;28;20055;-77
2023/05/26 11:43:53;;;;;;;30.65;4.90;;;19.60;99.90;;;;;;5116437;28;20075;-77
2023/05/26 11:46:20;;;;;;;18.50;4.20;;;19.60;99.90;;;;;;5116023;28;20102;-76
2023/05/26 11:48:46;;;;;;;18.50;4.38;;;19.80;99.90;;;;;;5116095;28;20051;-77
2023/05/26 11:51:20;;;;;;;21.45;3.70;;;19.70;99.90;;;;;;5117305;28;20075;-76
2023/05/26 11:53:47;;;;;;;18.35;4.60;;;19.60;99.90;;;;;;5115947;28;20044;-76
2023/05/26 11:56:14;;;;;;;21.10;3.75;;;19.40;99.90;;;;;;5116172;28;20043;-76
2023/05/26 11:58:49;;;;;;;16.67;4.05;;;19.40;99.90;;;;;;5117059;28;20497;-76
2023/05/26 12:01:15;;;;;;;24.92;4.85;;;19.60;99.90;;;;;;5117055;28;20036;-76
2023/05/26 12:03:44;;;;;;;20.38;4.20;;;19.30;99.90;;;;;;5115633;28;20062;-76
2023/05/26 12:06:16;;;;;;;20.00;4.72;;;19.40;99.90;;;;;;5117213;28;20039;-76
2023/05/26 12:08:50;;;;;;;22.67;4.50;;;19.20;99.90;;;;;;5115622;28;20119;-77
2023/05/26 12:11:29;;;;;;;26.80;4.85;;;19.30;99.90;;;;;;5117019;28;20040;-77
2023/05/26 12:13:57;;;;;;;21.67;3.97;;;19.30;99.90;;;;;;5115824;28;20055;-77
2023/05/26 12:16:34;;;;;;;29.75;4.95;;;19.30;99.90;;;;;;5115548;28;20119;-76
2023/05/26 12:19:02;;;;;;;19.48;4.13;;;19.30;99.90;;;;;;5115849;28;20031;-76
2023/05/26 12:21:30;;;;;;;29.30;5.05;;;19.40;99.90;;;;;;5115425;28;20040;-76
2023/05/26 12:23:57;;;;;;;44.88;6.82;;;19.40;99.90;;;;;;5115481;28;20050;-77
2023/05/26 12:26:31;;;;;;;22.95;5.28;;;19.40;99.90;;;;;;5115495;28;20043;-76
2023/05/26 12:29:14;;;;;;;21.90;4.30;;;19.70;99.90;;;;;;5115178;28;20384;-77
2023/05/26 12:31:45;;;;;;;25.67;4.13;;;19.70;99.90;;;;;;5115229;28;20047;-76
2023/05/26 12:34:29;;;;;;;19.40;4.65;;;19.70;99.90;;;;;;5116694;28;20035;-77
2023/05/26 12:36:55;;;;;;;20.75;4.75;;;19.80;99.90;;;;;;5116693;28;20127;-76
2023/05/26 12:39:20;;;;;;;25.17;4.05;;;19.80;99.90;;;;;;5115192;28;20081;-77
2023/05/26 12:41:52;;;;;;;27.02;4.47;;;19.80;99.90;;;;;;5115177;28;20043;-77
2023/05/26 12:44:18;;;;;;;16.20;4.03;;;20.00;99.90;;;;;;5115360;28;20062;-76